createdAt,value
2018-11-03T00:00:15.511Z,8.56
2018-11-03T00:02:43.147Z,8.56
2018-11-03T00:05:10.099Z,8.51
2018-11-03T00:07:37.066Z,8.48
2018-11-03T00:10:05.054Z,8.57
2018-11-03T00:12:31.954Z,8.57
2018-11-03T00:14:58.899Z,8.54
2018-11-03T00:17:25.854Z,8.53
2018-11-03T00:19:53.811Z,8.64
2018-11-03T00:22:20.770Z,8.62
2018-11-03T00:24:47.696Z,8.61
2018-11-03T00:27:14.651Z,8.60
2018-11-03T00:29:41.603Z,8.71
2018-11-03T00:32:08.546Z,8.69
2018-11-03T00:34:35.488Z,8.76
2018-11-03T00:37:02.422Z,8.74
2018-11-03T00:39:29.382Z,8.83
2018-11-03T00:41:56.319Z,8.78
2018-11-03T00:44:23.258Z,8.84
2018-11-03T00:46:50.203Z,8.86
2018-11-03T00:49:17.142Z,8.90
2018-11-03T00:51:43.987Z,8.80
2018-11-03T00:54:10.987Z,8.83
2018-11-03T00:56:37.879Z,8.85
2018-11-03T00:59:04.834Z,8.78
2018-11-03T01:01:31.773Z,8.73
2018-11-03T01:03:58.674Z,8.80
2018-11-03T01:06:25.627Z,8.77
2018-11-03T01:08:52.559Z,8.74
2018-11-03T01:11:19.499Z,8.70
2018-11-03T01:13:46.411Z,8.61
2018-11-03T01:16:13.393Z,8.65
2018-11-03T01:18:40.335Z,8.60
2018-11-03T01:21:07.300Z,8.67
2018-11-03T01:23:35.199Z,8.65
2018-11-03T01:26:02.026Z,8.63
2018-11-03T01:28:28.931Z,8.61
2018-11-03T01:30:55.879Z,8.64
2018-11-03T01:33:22.803Z,8.49
2018-11-03T01:35:50.709Z,8.37
2018-11-03T01:38:17.644Z,8.23
2018-11-03T01:40:44.583Z,8.21
2018-11-03T01:43:11.573Z,8.09
2018-11-03T01:45:38.517Z,8.07
2018-11-03T01:48:05.414Z,8.02
2018-11-03T01:50:33.401Z,7.86
2018-11-03T01:53:00.329Z,7.78
2018-11-03T01:55:27.214Z,7.71
2018-11-03T01:57:54.083Z,7.68
2018-11-03T02:00:20.944Z,7.80
2018-11-03T02:02:47.903Z,7.65
2018-11-03T02:05:14.883Z,7.81
2018-11-03T02:07:41.783Z,7.81
2018-11-03T02:10:09.331Z,7.84
2018-11-03T02:12:36.290Z,7.78
2018-11-03T02:15:03.239Z,7.62
2018-11-03T02:17:30.195Z,7.80
2018-11-03T02:19:57.135Z,7.82
2018-11-03T02:22:24.079Z,7.72
2018-11-03T02:24:51.015Z,7.76
2018-11-03T02:27:17.919Z,7.56
2018-11-03T02:29:44.811Z,7.42
2018-11-03T02:32:11.752Z,7.34
2018-11-03T02:34:38.738Z,7.50
2018-11-03T02:37:05.654Z,7.54
2018-11-03T02:39:32.612Z,7.57
2018-11-03T02:41:59.559Z,7.61
2018-11-03T02:44:26.495Z,7.71
2018-11-03T02:46:53.444Z,7.76
2018-11-03T02:49:20.383Z,7.75
2018-11-03T02:51:47.323Z,7.74
2018-11-03T02:54:14.259Z,7.80
2018-11-03T02:56:41.211Z,7.86
2018-11-03T02:59:11.575Z,8.00
2018-11-03T03:01:38.464Z,8.00
2018-11-03T03:04:05.439Z,8.01
2018-11-03T03:06:32.367Z,7.97
2018-11-03T03:08:59.267Z,7.98
2018-11-03T03:11:26.143Z,7.86
2018-11-03T03:13:53.101Z,7.80
2018-11-03T03:16:20.067Z,7.89
2018-11-03T03:18:46.981Z,7.88
2018-11-03T03:21:14.953Z,7.86
2018-11-03T03:23:42.912Z,7.92
2018-11-03T03:26:10.891Z,8.01
2018-11-03T03:28:37.833Z,7.96
2018-11-03T03:31:04.776Z,7.99
2018-11-03T03:33:31.726Z,7.98
2018-11-03T03:35:58.668Z,7.89
2018-11-03T03:38:25.696Z,7.91
2018-11-03T03:40:52.656Z,7.92
2018-11-03T03:43:19.570Z,8.01
2018-11-03T03:45:46.567Z,7.99
2018-11-03T03:48:13.615Z,7.99
2018-11-03T03:50:40.534Z,7.93
2018-11-03T03:53:07.480Z,7.96
2018-11-03T03:55:34.350Z,7.92
2018-11-03T03:58:01.264Z,7.85
2018-11-03T04:00:28.218Z,7.93
2018-11-03T04:02:56.082Z,7.87
2018-11-03T04:05:23.940Z,7.86
2018-11-03T04:07:50.891Z,7.90
2018-11-03T04:10:17.838Z,7.88
2018-11-03T04:12:44.783Z,7.93
2018-11-03T04:15:11.728Z,7.91
2018-11-03T04:17:38.675Z,7.91
2018-11-03T04:20:09.324Z,7.83
2018-11-03T04:22:36.251Z,7.84
2018-11-03T04:25:03.219Z,7.92
2018-11-03T04:27:30.135Z,7.96
2018-11-03T04:29:57.163Z,8.03
2018-11-03T04:32:24.122Z,7.87
2018-11-03T04:34:51.081Z,7.65
2018-11-03T04:37:17.953Z,7.58
2018-11-03T04:39:44.856Z,7.57
2018-11-03T04:42:11.815Z,7.52
2018-11-03T04:44:38.833Z,7.42
2018-11-03T04:47:05.715Z,7.31
2018-11-03T04:49:32.666Z,7.33
2018-11-03T04:52:00.606Z,7.22
2018-11-03T04:54:27.483Z,7.17
2018-11-03T04:56:54.394Z,7.13
2018-11-03T04:59:21.375Z,7.02
2018-11-03T05:01:48.286Z,6.99
2018-11-03T05:04:15.239Z,7.07
2018-11-03T05:06:43.098Z,7.03
2018-11-03T05:09:10.391Z,7.08
2018-11-03T05:11:38.442Z,7.03
2018-11-03T05:14:05.848Z,7.00
2018-11-03T05:16:32.827Z,7.08
2018-11-03T05:18:59.755Z,7.03
2018-11-03T05:21:29.741Z,6.96
2018-11-03T05:23:57.666Z,7.06
2018-11-03T05:26:24.535Z,6.91
2018-11-03T05:28:52.464Z,6.90
2018-11-03T05:31:19.468Z,6.87
2018-11-03T05:33:46.348Z,6.85
2018-11-03T05:36:14.323Z,6.85
2018-11-03T05:38:41.287Z,6.78
2018-11-03T05:41:08.212Z,6.78
2018-11-03T05:43:35.155Z,6.80
2018-11-03T05:46:02.087Z,6.78
2018-11-03T05:48:29.050Z,6.81
2018-11-03T05:50:55.998Z,6.80
2018-11-03T05:53:22.934Z,6.79
2018-11-03T05:55:49.908Z,6.83
2018-11-03T05:58:16.820Z,6.78
2018-11-03T06:00:43.767Z,6.79
2018-11-03T06:03:10.711Z,6.79
2018-11-03T06:05:37.588Z,6.85
2018-11-03T06:08:04.842Z,6.86
2018-11-03T06:10:31.805Z,6.84
2018-11-03T06:12:58.666Z,6.95
2018-11-03T06:15:25.571Z,6.89
2018-11-03T06:17:52.485Z,6.84
2018-11-03T06:20:19.425Z,6.89
2018-11-03T06:22:46.388Z,6.80
2018-11-03T06:25:13.403Z,6.76
2018-11-03T06:27:40.363Z,6.81
2018-11-03T06:30:08.148Z,6.81
2018-11-03T06:32:35.243Z,6.89
2018-11-03T06:35:02.520Z,6.77
2018-11-03T06:37:29.276Z,6.84
2018-11-03T06:39:56.220Z,6.82
2018-11-03T06:42:23.163Z,6.90
2018-11-03T06:44:51.136Z,6.87
2018-11-03T06:47:18.163Z,6.80
2018-11-03T06:49:45.027Z,6.85
2018-11-03T06:52:12.076Z,6.94
2018-11-03T06:54:38.907Z,6.91
2018-11-03T06:57:06.731Z,6.91
2018-11-03T06:59:33.632Z,6.94
2018-11-03T07:02:00.698Z,6.93
2018-11-03T07:04:27.634Z,7.04
2018-11-03T07:06:54.578Z,7.07
2018-11-03T07:09:21.517Z,7.21
2018-11-03T07:11:48.453Z,7.29
2018-11-03T07:14:15.380Z,7.34
2018-11-03T07:16:42.326Z,7.39
2018-11-03T07:19:09.266Z,7.45
2018-11-03T07:21:37.323Z,7.57
2018-11-03T07:24:04.246Z,7.58
2018-11-03T07:26:31.135Z,7.65
2018-11-03T07:28:58.084Z,7.65
2018-11-03T07:31:25.016Z,7.72
2018-11-03T07:33:51.982Z,7.82
2018-11-03T07:36:18.917Z,7.81
2018-11-03T07:38:45.857Z,7.86
2018-11-03T07:41:12.800Z,7.92
2018-11-03T07:43:39.748Z,8.05
2018-11-03T07:46:06.707Z,8.03
2018-11-03T07:48:33.647Z,8.09
2018-11-03T07:51:00.939Z,8.14
2018-11-03T07:53:27.870Z,8.12
2018-11-03T07:55:55.823Z,8.22
2018-11-03T07:58:22.778Z,8.28
2018-11-03T08:00:49.712Z,8.16
2018-11-03T08:03:16.644Z,8.34
2018-11-03T08:05:43.571Z,8.34
2018-11-03T08:08:10.530Z,8.50
2018-11-03T08:10:37.465Z,8.56
2018-11-03T08:13:05.172Z,8.56
2018-11-03T08:15:32.136Z,8.53
2018-11-03T08:17:59.028Z,8.65
2018-11-03T08:20:25.963Z,8.60
2018-11-03T08:22:52.903Z,8.74
2018-11-03T08:25:19.859Z,8.74
2018-11-03T08:27:46.844Z,8.79
2018-11-03T08:30:14.108Z,8.85
2018-11-03T08:32:41.587Z,9.02
2018-11-03T08:35:09.559Z,9.01
2018-11-03T08:37:36.541Z,8.85
2018-11-03T08:40:04.831Z,8.89
2018-11-03T08:42:31.743Z,8.92
2018-11-03T08:44:58.760Z,8.99
2018-11-03T08:47:25.760Z,9.21
2018-11-03T08:49:52.687Z,9.16
2018-11-03T08:52:19.619Z,9.21
2018-11-03T08:54:46.603Z,9.30
2018-11-03T08:57:13.515Z,9.39
2018-11-03T08:59:40.573Z,9.64
2018-11-03T09:02:07.455Z,9.82
2018-11-03T09:04:34.366Z,9.60
2018-11-03T09:07:01.374Z,9.64
2018-11-03T09:09:28.263Z,9.69
2018-11-03T09:11:55.205Z,9.74
2018-11-03T09:14:22.177Z,9.86
2018-11-03T09:16:49.075Z,9.92
2018-11-03T09:19:16.146Z,9.94
2018-11-03T09:21:43.041Z,9.91
2018-11-03T09:24:09.942Z,10.21
2018-11-03T09:26:36.920Z,10.07
2018-11-03T09:29:03.931Z,10.43
2018-11-03T09:31:30.845Z,10.28
2018-11-03T09:33:57.788Z,10.44
2018-11-03T09:36:25.275Z,10.34
2018-11-03T09:38:52.303Z,10.63
2018-11-03T09:41:19.340Z,10.67
2018-11-03T09:43:46.303Z,10.19
2018-11-03T09:46:13.230Z,10.47
2018-11-03T09:48:40.389Z,10.43
2018-11-03T09:51:07.432Z,10.78
2018-11-03T09:53:34.275Z,10.74
2018-11-03T09:56:01.224Z,10.91
2018-11-03T09:58:28.195Z,11.12
2018-11-03T10:00:55.384Z,11.34
2018-11-03T10:03:22.247Z,11.37
2018-11-03T10:05:49.186Z,11.21
2018-11-03T10:08:16.239Z,11.41
2018-11-03T10:10:43.224Z,11.43
2018-11-03T10:13:10.150Z,11.35
2018-11-03T10:15:37.109Z,11.19
2018-11-03T10:18:04.190Z,11.47
2018-11-03T10:20:31.083Z,11.32
2018-11-03T10:22:58.158Z,11.33
2018-11-03T10:25:24.971Z,11.37
2018-11-03T10:27:51.943Z,11.26
2018-11-03T10:30:18.857Z,11.28
2018-11-03T10:32:46.339Z,11.25
2018-11-03T10:35:13.664Z,11.45
2018-11-03T10:37:40.900Z,11.55
2018-11-03T10:40:09.937Z,11.95
2018-11-03T10:42:37.874Z,11.90
2018-11-03T10:45:06.503Z,11.70
2018-11-03T10:47:33.411Z,11.56
2018-11-03T10:50:00.338Z,11.32
2018-11-03T10:52:27.287Z,11.44
2018-11-03T10:54:54.247Z,11.44
2018-11-03T10:57:21.171Z,11.54
2018-11-03T10:59:48.490Z,11.70
2018-11-03T11:02:21.287Z,11.73
2018-11-03T11:04:53.887Z,11.76
2018-11-03T11:07:30.292Z,11.74
2018-11-03T11:10:02.998Z,11.78
2018-11-03T11:12:35.503Z,11.73
2018-11-03T11:15:02.458Z,11.83
2018-11-03T11:17:29.416Z,11.92
2018-11-03T11:19:56.347Z,11.91
2018-11-03T11:22:23.291Z,11.89
2018-11-03T11:24:50.334Z,11.92
2018-11-03T11:27:17.203Z,11.85
2018-11-03T11:29:44.128Z,11.92
2018-11-03T11:32:11.068Z,11.77
2018-11-03T11:34:38.208Z,11.82
2018-11-03T11:37:05.188Z,11.87
2018-11-03T11:39:32.108Z,11.93
2018-11-03T11:41:59.083Z,12.00
2018-11-03T11:44:26.013Z,11.94
2018-11-03T11:46:52.943Z,12.20
2018-11-03T11:49:19.911Z,12.04
2018-11-03T11:51:46.826Z,12.05
2018-11-03T11:54:13.783Z,12.28
2018-11-03T11:56:40.775Z,12.01
2018-11-03T11:59:07.659Z,12.15
2018-11-03T12:01:34.619Z,12.26
2018-11-03T12:04:01.551Z,12.36
2018-11-03T12:06:28.532Z,12.36
2018-11-03T12:08:55.461Z,12.11
2018-11-03T12:11:22.400Z,12.34
2018-11-03T12:13:49.331Z,12.42
2018-11-03T12:16:16.443Z,12.26
2018-11-03T12:18:43.335Z,12.07
2018-11-03T12:21:10.284Z,12.12
2018-11-03T12:23:37.310Z,12.06
2018-11-03T12:26:04.723Z,11.93
2018-11-03T12:28:31.618Z,12.27
2018-11-03T12:30:58.592Z,12.43
2018-11-03T12:33:25.577Z,12.27
2018-11-03T12:35:53.497Z,12.48
2018-11-03T12:38:21.232Z,12.53
2018-11-03T12:40:48.318Z,12.34
2018-11-03T12:43:15.140Z,12.32
2018-11-03T12:45:42.072Z,12.38
2018-11-03T12:48:09.089Z,12.20
2018-11-03T12:50:37.055Z,12.26
2018-11-03T12:53:03.957Z,12.16
2018-11-03T12:55:30.878Z,12.16
2018-11-03T12:57:57.826Z,12.36
2018-11-03T13:00:24.859Z,12.25
2018-11-03T13:02:51.727Z,12.23
2018-11-03T13:05:18.766Z,12.25
2018-11-03T13:07:45.778Z,12.31
2018-11-03T13:10:12.784Z,12.28
2018-11-03T13:12:40.407Z,12.46
2018-11-03T13:15:09.499Z,12.58
2018-11-03T13:17:36.792Z,12.49
2018-11-03T13:20:04.975Z,12.39
2018-11-03T13:22:31.897Z,12.40
2018-11-03T13:24:58.821Z,12.45
2018-11-03T13:27:25.790Z,12.22
2018-11-03T13:29:53.507Z,12.37
2018-11-03T13:32:20.386Z,12.42
2018-11-03T13:34:47.310Z,12.39
2018-11-03T13:37:14.266Z,12.45
2018-11-03T13:39:41.202Z,12.44
2018-11-03T13:42:08.154Z,12.48
2018-11-03T13:44:35.140Z,12.60
2018-11-03T13:47:02.100Z,12.67
2018-11-03T13:49:28.991Z,12.77
2018-11-03T13:51:55.940Z,12.71
2018-11-03T13:54:22.954Z,12.68
2018-11-03T13:56:49.879Z,12.66
2018-11-03T13:59:16.847Z,12.69
2018-11-03T14:01:43.850Z,12.65
2018-11-03T14:04:10.783Z,12.67
2018-11-03T14:06:37.699Z,12.66
2018-11-03T14:09:05.938Z,12.68
2018-11-03T14:11:32.819Z,12.77
2018-11-03T14:13:59.775Z,12.86
2018-11-03T14:16:26.739Z,12.86
2018-11-03T14:18:55.604Z,12.85
2018-11-03T14:21:22.558Z,12.84
2018-11-03T14:23:49.481Z,12.89
2018-11-03T14:26:16.495Z,12.89
2018-11-03T14:28:48.462Z,12.75
2018-11-03T14:31:15.350Z,12.68
2018-11-03T14:33:42.301Z,12.69
2018-11-03T14:36:09.351Z,12.65
2018-11-03T14:38:36.275Z,12.74
2018-11-03T14:41:03.583Z,12.81
2018-11-03T14:43:30.475Z,13.03
2018-11-03T14:45:57.415Z,12.92
2018-11-03T14:48:24.351Z,12.77
2018-11-03T14:50:51.346Z,12.69
2018-11-03T14:53:18.333Z,12.70
2018-11-03T14:55:45.237Z,12.68
2018-11-03T14:58:12.131Z,12.66
2018-11-03T15:00:39.094Z,12.71
2018-11-03T15:03:06.639Z,12.79
2018-11-03T15:05:33.579Z,12.67
2018-11-03T15:08:00.527Z,12.64
2018-11-03T15:10:27.487Z,12.54
2018-11-03T15:12:54.467Z,12.58
2018-11-03T15:15:21.368Z,12.47
2018-11-03T15:17:48.318Z,12.46
2018-11-03T15:20:15.262Z,12.40
2018-11-03T15:22:43.115Z,12.35
2018-11-03T15:25:11.175Z,12.30
2018-11-03T15:27:38.387Z,12.23
2018-11-03T15:30:06.979Z,12.27
2018-11-03T15:32:33.890Z,12.33
2018-11-03T15:35:01.080Z,12.40
2018-11-03T15:37:27.862Z,12.37
2018-11-03T15:39:54.815Z,12.25
2018-11-03T15:42:21.988Z,12.28
2018-11-03T15:44:48.915Z,12.19
2018-11-03T15:47:15.839Z,12.08
2018-11-03T15:49:42.786Z,12.01
2018-11-03T15:52:09.780Z,11.94
2018-11-03T15:54:36.686Z,11.89
2018-11-03T15:57:04.363Z,11.76
2018-11-03T15:59:33.246Z,11.71
2018-11-03T16:02:00.175Z,11.69
2018-11-03T16:04:27.128Z,11.63
2018-11-03T16:06:55.395Z,11.56
2018-11-03T16:09:24.328Z,11.44
2018-11-03T16:11:51.272Z,11.35
2018-11-03T16:14:18.192Z,11.22
2018-11-03T16:16:45.138Z,11.19
2018-11-03T16:19:12.253Z,10.96
2018-11-03T16:21:43.939Z,11.08
2018-11-03T16:24:10.929Z,10.94
2018-11-03T16:26:37.831Z,10.87
2018-11-03T16:29:04.783Z,11.16
2018-11-03T16:31:32.759Z,10.95
2018-11-03T16:34:00.712Z,10.86
2018-11-03T16:36:27.663Z,10.86
2018-11-03T16:38:56.568Z,10.76
2018-11-03T16:41:25.567Z,10.64
2018-11-03T16:43:52.475Z,10.52
2018-11-03T16:46:19.422Z,10.63
2018-11-03T16:48:46.547Z,10.85
2018-11-03T16:51:14.806Z,10.91
2018-11-03T16:53:43.776Z,10.84
2018-11-03T16:56:10.691Z,10.74
2018-11-03T16:58:37.726Z,10.69
2018-11-03T17:01:08.368Z,10.80
2018-11-03T17:03:35.278Z,10.84
2018-11-03T17:06:02.171Z,10.91
2018-11-03T17:08:29.182Z,10.96
2018-11-03T17:10:58.171Z,10.96
2018-11-03T17:13:25.038Z,10.92
2018-11-03T17:15:52.033Z,10.88
2018-11-03T17:18:18.931Z,10.81
2018-11-03T17:20:45.871Z,10.70
2018-11-03T17:23:12.894Z,10.75
2018-11-03T17:25:40.083Z,10.79
2018-11-03T17:28:07.012Z,10.86
2018-11-03T17:30:33.962Z,10.85
2018-11-03T17:33:04.203Z,10.78
2018-11-03T17:35:34.814Z,10.81
2018-11-03T17:38:01.767Z,10.78
2018-11-03T17:40:28.694Z,10.83
2018-11-03T17:42:56.688Z,10.96
2018-11-03T17:45:23.663Z,11.07
2018-11-03T17:47:50.567Z,11.05
2018-11-03T17:50:17.500Z,11.11
2018-11-03T17:52:44.479Z,11.09
2018-11-03T17:55:11.470Z,11.09
2018-11-03T17:57:38.479Z,11.17
2018-11-03T18:00:09.430Z,11.17
2018-11-03T18:02:36.235Z,11.35
2018-11-03T18:05:03.559Z,11.23
2018-11-03T18:07:30.529Z,11.24
2018-11-03T18:09:57.463Z,11.32
2018-11-03T18:12:24.407Z,11.35
2018-11-03T18:14:52.277Z,11.40
2018-11-03T18:17:19.218Z,11.43
2018-11-03T18:19:47.345Z,11.23
2018-11-03T18:22:14.281Z,11.16
2018-11-03T18:24:41.307Z,11.04
2018-11-03T18:27:08.404Z,11.25
2018-11-03T18:29:35.347Z,11.34
2018-11-03T18:32:03.794Z,11.50
2018-11-03T18:34:30.857Z,11.30
2018-11-03T18:36:57.847Z,11.23
2018-11-03T18:39:26.888Z,11.30
2018-11-03T18:41:54.882Z,11.32
2018-11-03T18:44:23.918Z,11.67
2018-11-03T18:46:51.951Z,11.77
2018-11-03T18:49:19.002Z,11.72
2018-11-03T18:51:48.056Z,11.56
2018-11-03T18:54:15.008Z,11.50
2018-11-03T18:56:43.064Z,11.53
2018-11-03T18:59:12.019Z,11.48
2018-11-03T19:01:39.088Z,11.54
2018-11-03T19:04:09.386Z,11.39
2018-11-03T19:06:36.351Z,11.20
2018-11-03T19:09:06.004Z,11.17
2018-11-03T19:11:33.081Z,11.11
2018-11-03T19:14:00.083Z,11.05
2018-11-03T19:16:27.035Z,10.99
2018-11-03T19:18:53.989Z,11.05
2018-11-03T19:21:20.943Z,11.01
2018-11-03T19:23:48.000Z,10.68
2018-11-03T19:26:14.936Z,10.61
2018-11-03T19:28:41.983Z,10.62
2018-11-03T19:31:08.896Z,10.55
2018-11-03T19:33:36.184Z,10.53
2018-11-03T19:36:03.168Z,10.63
2018-11-03T19:38:30.170Z,10.49
2018-11-03T19:40:57.158Z,10.47
2018-11-03T19:43:24.089Z,10.47
2018-11-03T19:45:53.091Z,10.37
2018-11-03T19:48:20.187Z,10.28
2018-11-03T19:50:47.226Z,10.25
2018-11-03T19:53:14.315Z,10.14
2018-11-03T19:55:41.395Z,10.00
2018-11-03T19:58:09.379Z,9.99
2018-11-03T20:00:36.471Z,9.92
2018-11-03T20:03:03.540Z,9.94
2018-11-03T20:05:30.475Z,9.95
2018-11-03T20:07:57.455Z,9.97
2018-11-03T20:10:24.462Z,9.97
2018-11-03T20:12:51.343Z,9.92
2018-11-03T20:15:18.303Z,9.87
2018-11-03T20:17:45.223Z,9.90
2018-11-03T20:20:13.067Z,9.92
2018-11-03T20:22:40.053Z,9.95
2018-11-03T20:25:11.544Z,10.00
2018-11-03T20:27:38.468Z,10.00
2018-11-03T20:30:07.843Z,10.04
2018-11-03T20:32:34.850Z,10.03
2018-11-03T20:35:01.775Z,9.91
2018-11-03T20:37:28.683Z,9.90
2018-11-03T20:39:55.674Z,9.81
2018-11-03T20:42:22.630Z,9.81
2018-11-03T20:44:49.533Z,9.80
2018-11-03T20:47:16.536Z,9.79
2018-11-03T20:49:43.531Z,9.79
2018-11-03T20:52:10.533Z,9.92
2018-11-03T20:54:37.480Z,9.99
2018-11-03T20:57:04.491Z,9.87
2018-11-03T20:59:32.470Z,9.78
2018-11-03T21:01:59.624Z,9.79
2018-11-03T21:04:26.531Z,9.83
2018-11-03T21:06:53.480Z,9.89
2018-11-03T21:09:20.447Z,9.91
2018-11-03T21:11:49.404Z,10.01
2018-11-03T21:14:16.347Z,9.83
2018-11-03T21:19:16.475Z,10.07
2018-11-03T21:21:43.455Z,9.87
2018-11-03T21:24:10.737Z,9.87
2018-11-03T21:26:37.651Z,9.80
2018-11-03T21:29:05.120Z,9.79
2018-11-03T21:31:32.081Z,9.81
2018-11-03T21:34:00.115Z,9.85
2018-11-03T21:36:27.021Z,9.91
2018-11-03T21:38:55.068Z,9.83
2018-11-03T21:41:22.051Z,9.80
2018-11-03T21:43:48.963Z,9.77
2018-11-03T21:46:15.972Z,9.77
2018-11-03T21:48:43.774Z,9.69
2018-11-03T21:51:10.727Z,9.78
2018-11-03T21:53:38.592Z,9.83
2018-11-03T21:56:07.949Z,9.85
2018-11-03T21:58:34.715Z,9.83
2018-11-03T22:01:02.595Z,9.81
2018-11-03T22:03:30.455Z,9.81
2018-11-03T22:05:57.419Z,9.73
2018-11-03T22:08:24.349Z,9.73
2018-11-03T22:10:51.303Z,9.75
2018-11-03T22:13:18.239Z,9.76
2018-11-03T22:15:45.201Z,9.70
2018-11-03T22:18:12.163Z,9.72
2018-11-03T22:20:39.129Z,9.67
2018-11-03T22:23:07.043Z,9.74
2018-11-03T22:25:34.000Z,9.67
2018-11-03T22:28:01.007Z,9.63
2018-11-03T22:30:27.894Z,9.67
2018-11-03T22:32:54.835Z,9.69
2018-11-03T22:35:21.784Z,9.64
2018-11-03T22:37:48.739Z,9.68
2018-11-03T22:40:15.690Z,9.67
2018-11-03T22:42:43.735Z,9.72
2018-11-03T22:45:10.692Z,9.74
2018-11-03T22:47:37.676Z,9.70
2018-11-03T22:50:04.696Z,9.71
2018-11-03T22:52:31.636Z,9.71
2018-11-03T22:54:58.616Z,9.74
2018-11-03T22:57:25.502Z,9.68
2018-11-03T22:59:52.456Z,9.80
2018-11-03T23:02:19.390Z,9.83
2018-11-03T23:04:46.319Z,9.93
2018-11-03T23:07:13.279Z,9.95
2018-11-03T23:09:40.227Z,9.90
2018-11-03T23:12:07.205Z,9.91
2018-11-03T23:14:35.262Z,9.84
2018-11-03T23:17:02.197Z,9.80
2018-11-03T23:19:30.054Z,9.81
2018-11-03T23:21:57.010Z,9.72
2018-11-03T23:24:23.932Z,9.78
2018-11-03T23:26:51.810Z,9.69
2018-11-03T23:29:19.721Z,9.73
2018-11-03T23:31:48.670Z,9.66
2018-11-03T23:34:15.618Z,9.67
2018-11-03T23:36:42.556Z,9.77
2018-11-03T23:39:10.615Z,9.83
2018-11-03T23:41:37.780Z,9.84
2018-11-03T23:44:04.797Z,9.91
2018-11-03T23:46:31.655Z,10.09
2018-11-03T23:48:59.590Z,10.04
2018-11-03T23:51:26.471Z,10.05
2018-11-03T23:53:55.383Z,10.01
2018-11-03T23:56:22.326Z,10.05
2018-11-03T23:58:49.244Z,10.04
